Ellenton, Florida
Current Conditions -  °F | °C
As of 10:53 AM on Friday 24 Oct 2014 (Local Time) from KSRQ Reporting Station
Clear Clear  
Wind Chill: 75°   Ceiling: Unl
Heat Index: 75°   Visibility: 10mi
Dew Point: 59°   Wind: 9mph
Humidity: 57%   Direction: 30°NNE
Pressure: 29.97"   Gusts: NA
Location:  27.52°N, 82.53°W
Report Text: KSRQ 241453Z 03008KT 10SM CLR 24/15 A2997 RMK AO2 SLP148 T02390150 50006
Loading
Personal Weather Stations






























Interactive Weather Map
Tropical Storm Tracking
New forecast layout! Learn more

10-Day Weather Forecast

Advertisements
Track Severe Weather on mobile